Time;durP1;ratioP1;P1;durP2;ratioP2;P2;SDS_P1;SDS_P2;PMS_P1;PMS_P2;Temp;Humidity;BMP_temperature;BMP_pressure;BME280_temperature;BME280_humidity;BME280_pressure;Samples;Min_cycle;Max_cycle;Signal;HPM_P1;HPM_P2
2023/12/27 00:00:24;;;;;;;1.17;1.17;;;;;;;6.99;100.00;99165.91;4137967;28;20212;-52
2023/12/27 00:02:26;;;;;;;1.48;1.35;;;;;;;7.04;100.00;99167.97;4143534;28;20279;-51
2023/12/27 00:04:30;;;;;;;1.05;1.02;;;;;;;7.04;100.00;99170.69;4135957;28;20716;-50
2023/12/27 00:06:32;;;;;;;1.77;1.67;;;;;;;7.00;100.00;99166.72;4135702;28;20301;-52
2023/12/27 00:08:35;;;;;;;1.45;1.35;;;;;;;7.05;100.00;99165.03;4135834;28;20241;-50
2023/12/27 00:10:37;;;;;;;3.35;2.25;;;;;;;7.02;100.00;99161.91;4136360;28;20213;-52
2023/12/27 00:12:38;;;;;;;1.80;1.70;;;;;;;7.07;100.00;99157.50;4138258;28;20263;-50
2023/12/27 00:14:40;;;;;;;1.52;1.42;;;;;;;7.06;100.00;99154.97;4119730;28;20660;-50
2023/12/27 00:16:42;;;;;;;1.65;1.55;;;;;;;7.13;100.00;99155.81;4143070;28;20279;-51
2023/12/27 00:18:43;;;;;;;1.52;1.40;;;;;;;7.16;100.00;99152.69;4143757;28;20287;-50
2023/12/27 00:20:47;;;;;;;1.55;1.50;;;;;;;7.17;100.00;99140.75;4119925;28;20257;-51
2023/12/27 00:22:49;;;;;;;2.08;1.70;;;;;;;7.25;100.00;99133.19;4139758;28;20210;-53
2023/12/27 00:24:51;;;;;;;1.20;1.20;;;;;;;7.21;100.00;99142.81;4135508;28;20331;-50
2023/12/27 00:26:55;;;;;;;1.63;1.52;;;;;;;7.23;100.00;99161.66;4117478;28;20226;-51
2023/12/27 00:28:57;;;;;;;2.63;2.42;;;;;;;7.24;100.00;99158.72;4133278;28;20268;-52
2023/12/27 00:30:59;;;;;;;2.13;1.73;;;;;;;7.30;100.00;99163.28;4136671;28;20229;-50
2023/12/27 00:33:01;;;;;;;5.43;1.50;;;;;;;7.31;100.00;99159.56;4135855;28;20210;-51
2023/12/27 00:35:03;;;;;;;1.08;1.05;;;;;;;7.30;100.00;99163.28;4135064;28;20588;-50
2023/12/27 00:37:05;;;;;;;1.00;1.00;;;;;;;7.26;100.00;99167.50;4136311;28;20291;-55
2023/12/27 00:39:10;;;;;;;5.22;1.00;;;;;;;7.36;100.00;99164.34;4143554;28;20233;-50
2023/12/27 00:41:12;;;;;;;1.17;1.17;;;;;;;7.35;100.00;99173.56;4134092;28;20305;-52
2023/12/27 00:43:13;;;;;;;1.20;1.15;;;;;;;7.25;100.00;99170.44;4138264;28;20271;-50
2023/12/27 00:45:15;;;;;;;1.52;1.35;;;;;;;7.32;100.00;99171.25;4120639;28;20635;-49
2023/12/27 00:47:16;;;;;;;1.33;1.30;;;;;;;7.38;100.00;99173.13;4132114;28;20828;-52
2023/12/27 00:49:18;;;;;;;4.57;1.20;;;;;;;7.35;100.00;99168.94;4135682;28;20238;-50
2023/12/27 00:51:20;;;;;;;3.70;1.30;;;;;;;7.38;100.00;99164.97;4133355;28;20667;-50
2023/12/27 00:53:22;;;;;;;1.50;1.40;;;;;;;7.35;100.00;99171.66;4142552;28;20205;-50
2023/12/27 00:55:24;;;;;;;2.40;1.48;;;;;;;7.42;100.00;99174.38;4133868;28;20213;-50
2023/12/27 00:57:26;;;;;;;1.52;1.42;;;;;;;7.43;100.00;99178.78;4135318;28;20285;-50
2023/12/27 00:59:27;;;;;;;1.77;1.67;;;;;;;7.50;100.00;99179.59;4135893;28;20320;-50
2023/12/27 01:01:30;;;;;;;1.58;1.40;;;;;;;7.41;100.00;99189.88;4134742;28;20217;-51
2023/12/27 01:03:32;;;;;;;1.80;1.70;;;;;;;7.47;100.00;99180.00;4137194;28;20217;-52
2023/12/27 01:05:33;;;;;;;1.85;1.75;;;;;;;7.42;100.00;99190.72;4138143;28;20249;-51
2023/12/27 01:07:35;;;;;;;1.15;1.00;;;;;;;7.46;100.00;99189.22;4134744;28;20205;-50
2023/12/27 01:09:37;;;;;;;2.38;2.15;;;;;;;7.48;100.00;99189.88;4121752;28;20242;-50
2023/12/27 01:11:38;;;;;;;1.40;1.30;;;;;;;7.49;100.00;99178.75;4140410;28;20263;-52
2023/12/27 01:13:40;;;;;;;2.17;1.85;;;;;;;7.42;100.00;99183.38;4116575;28;20210;-51
2023/12/27 01:15:42;;;;;;;2.47;2.17;;;;;;;7.42;100.00;99183.38;4135015;28;20217;-52
2023/12/27 01:17:43;;;;;;;2.75;2.10;;;;;;;7.54;100.00;99184.38;4134640;28;20222;-50
2023/12/27 01:19:45;;;;;;;1.42;1.35;;;;;;;7.47;100.00;99169.13;4122357;28;20277;-50
2023/12/27 01:21:47;;;;;;;2.03;1.88;;;;;;;7.49;100.00;99177.94;4133041;28;20220;-50
2023/12/27 01:23:49;;;;;;;2.33;1.60;;;;;;;7.56;100.00;99178.75;4127711;28;20664;-51
2023/12/27 01:25:51;;;;;;;1.20;1.10;;;;;;;7.56;100.00;99173.28;4143918;28;20260;-51
2023/12/27 01:27:52;;;;;;;1.58;1.48;;;;;;;7.46;100.00;99172.88;4137867;28;20214;-50
2023/12/27 01:29:54;;;;;;;1.75;1.63;;;;;;;7.52;100.00;99166.59;4135772;28;20969;-51
2023/12/27 01:31:56;;;;;;;1.55;1.45;;;;;;;7.52;100.00;99172.03;4136380;28;20307;-50
2023/12/27 01:33:57;;;;;;;5.07;2.17;;;;;;;7.45;100.00;99171.22;4134052;28;21223;-51
2023/12/27 01:36:12;;;;;;;2.70;2.28;;;;;;;7.47;100.00;99169.13;4128546;28;20202;-50
2023/12/27 01:38:14;;;;;;;2.00;1.90;;;;;;;7.47;100.00;99171.84;4137400;28;20338;-51
2023/12/27 01:40:16;;;;;;;3.88;1.77;;;;;;;7.47;100.00;99175.41;4135146;28;20265;-50
2023/12/27 01:42:18;;;;;;;2.80;1.42;;;;;;;7.47;100.00;99167.25;4143702;28;20236;-53
2023/12/27 01:44:19;;;;;;;1.40;1.30;;;;;;;7.46;100.00;99167.44;4133921;28;20213;-52
2023/12/27 01:46:21;;;;;;;1.45;1.35;;;;;;;7.43;100.00;99170.63;4136151;28;20205;-53
2023/12/27 01:48:24;;;;;;;2.10;1.90;;;;;;;7.40;100.00;99173.75;4118344;28;20264;-52
2023/12/27 01:50:26;;;;;;;1.15;1.15;;;;;;;7.42;100.00;99177.09;4134096;28;20265;-50
2023/12/27 01:52:27;;;;;;;0.95;0.95;;;;;;;7.43;100.00;99173.34;4134318;28;20217;-52
2023/12/27 01:54:29;;;;;;;1.65;1.23;;;;;;;7.43;100.00;99173.34;4121673;28;20213;-50
2023/12/27 01:56:32;;;;;;;2.83;2.08;;;;;;;7.41;100.00;99175.44;4136377;28;20324;-50
2023/12/27 01:58:34;;;;;;;2.30;2.20;;;;;;;7.47;100.00;99175.41;4124759;28;20731;-51
2023/12/27 02:00:39;;;;;;;1.88;1.77;;;;;;;7.48;100.00;99170.81;4130558;28;20750;-53
2023/12/27 02:02:42;;;;;;;1.10;1.08;;;;;;;7.42;100.00;99171.66;4131300;28;20220;-50
2023/12/27 02:04:44;;;;;;;1.55;1.45;;;;;;;7.44;100.00;99175.00;4146522;28;20209;-50
2023/12/27 02:06:46;;;;;;;1.17;1.17;;;;;;;7.51;100.00;99181.25;4141210;28;20244;-51
2023/12/27 02:08:47;;;;;;;1.75;1.23;;;;;;;7.46;100.00;99181.06;4138240;28;20331;-51
2023/12/27 02:10:49;;;;;;;1.77;1.67;;;;;;;7.46;100.00;99181.06;4121871;28;20280;-51
2023/12/27 02:12:51;;;;;;;2.25;1.70;;;;;;;7.55;100.00;99174.34;4139595;28;20542;-51
2023/12/27 02:14:52;;;;;;;1.25;1.15;;;;;;;7.47;100.00;99169.13;4138578;28;20209;-51
2023/12/27 02:16:54;;;;;;;1.15;1.15;;;;;;;7.48;100.00;99176.25;4136808;28;20287;-55
2023/12/27 02:18:56;;;;;;;1.83;1.10;;;;;;;7.48;100.00;99176.25;4137076;28;20237;-52
2023/12/27 02:20:58;;;;;;;1.67;1.58;;;;;;;7.51;100.00;99164.91;4136246;28;20225;-50
2023/12/27 02:23:03;;;;;;;2.63;1.73;;;;;;;7.43;100.00;99165.16;4139330;28;20209;-51
2023/12/27 02:25:05;;;;;;;2.55;1.83;;;;;;;7.53;100.00;99168.25;4138364;28;20210;-51
2023/12/27 02:27:07;;;;;;;1.38;1.20;;;;;;;7.58;100.00;99168.47;4141540;28;20638;-53
2023/12/27 02:29:09;;;;;;;1.20;1.10;;;;;;;7.49;100.00;99158.88;4140854;28;20226;-50
2023/12/27 02:31:11;;;;;;;1.20;1.20;;;;;;;7.44;100.00;99158.66;4136447;28;20214;-51
2023/12/27 02:33:12;;;;;;;1.23;1.13;;;;;;;7.45;100.00;99161.19;4135575;28;20237;-52
2023/12/27 02:35:15;;;;;;;4.53;1.65;;;;;;;7.51;100.00;99148.59;4139449;28;20753;-52
2023/12/27 02:37:17;;;;;;;1.45;1.35;;;;;;;7.41;100.00;99151.75;4140912;28;20690;-53
2023/12/27 02:39:19;;;;;;;1.10;1.00;;;;;;;7.43;100.00;99144.19;4136745;28;20221;-51
2023/12/27 02:41:22;;;;;;;5.32;1.85;;;;;;;7.41;100.00;99131.88;4139464;28;20214;-52
2023/12/27 02:43:23;;;;;;;1.25;1.25;;;;;;;7.35;100.00;99138.19;4139930;28;21105;-50
2023/12/27 02:45:25;;;;;;;0.82;0.82;;;;;;;7.38;100.00;99127.69;4137522;28;20213;-50
2023/12/27 02:47:27;;;;;;;1.50;1.40;;;;;;;7.33;100.00;99134.81;4134354;28;20214;-51
2023/12/27 02:49:28;;;;;;;1.40;1.20;;;;;;;7.35;100.00;99140.91;4139290;28;20233;-50
2023/12/27 02:51:31;;;;;;;2.75;1.92;;;;;;;7.33;100.00;99132.09;4138702;28;20222;-52
2023/12/27 02:53:32;;;;;;;4.50;1.40;;;;;;;7.33;100.00;99132.94;4127143;28;20213;-51
2023/12/27 02:55:34;;;;;;;1.67;1.58;;;;;;;7.33;100.00;99134.81;4137180;28;20269;-53
2023/12/27 02:57:36;;;;;;;1.23;1.13;;;;;;;7.33;100.00;99134.81;4140897;28;20233;-50
2023/12/27 02:59:38;;;;;;;1.08;1.08;;;;;;;7.42;100.00;99133.56;4152591;28;20311;-51
2023/12/27 03:01:39;;;;;;;2.35;1.52;;;;;;;7.45;100.00;99128.50;4136784;28;20216;-51
2023/12/27 03:03:41;;;;;;;0.70;0.70;;;;;;;7.39;100.00;99123.91;4121220;28;20605;-51
2023/12/27 03:05:43;;;;;;;1.45;1.30;;;;;;;7.31;100.00;99120.59;4129840;28;20273;-53
2023/12/27 03:07:44;;;;;;;1.25;1.25;;;;;;;7.32;100.00;99117.66;4144352;28;20214;-51
2023/12/27 03:09:46;;;;;;;1.08;1.08;;;;;;;7.45;100.00;99111.31;4144551;28;20229;-51
2023/12/27 03:11:48;;;;;;;2.58;1.67;;;;;;;7.36;100.00;99112.63;4135017;28;20269;-51
2023/12/27 03:13:50;;;;;;;1.13;1.13;;;;;;;7.47;100.00;99115.50;4134103;28;20260;-52
2023/12/27 03:15:51;;;;;;;1.27;1.27;;;;;;;7.35;100.00;99113.69;4135677;28;20598;-55
2023/12/27 03:17:53;;;;;;;1.30;1.30;;;;;;;7.37;100.00;99106.13;4135745;28;20705;-51
2023/12/27 03:19:55;;;;;;;0.90;0.88;;;;;;;7.38;100.00;99100.47;4135895;28;20337;-50
2023/12/27 03:21:57;;;;;;;1.73;0.93;;;;;;;7.46;100.00;99102.09;4137187;28;20217;-51
2023/12/27 03:23:58;;;;;;;1.48;1.38;;;;;;;7.47;100.00;99093.72;4136513;28;20252;-54
2023/12/27 03:26:00;;;;;;;0.95;0.95;;;;;;;7.35;100.00;99094.63;4145317;28;20517;-53
2023/12/27 03:28:02;;;;;;;4.05;1.02;;;;;;;7.38;100.00;99094.19;4144836;28;20706;-54
2023/12/27 03:30:04;;;;;;;1.77;1.67;;;;;;;7.37;100.00;99097.97;4138207;28;20214;-52
2023/12/27 03:32:06;;;;;;;1.35;1.25;;;;;;;7.34;100.00;99092.94;4137861;28;20602;-53
2023/12/27 03:34:08;;;;;;;1.20;1.00;;;;;;;7.34;100.00;99090.19;4137354;28;20227;-53
2023/12/27 03:36:10;;;;;;;1.10;1.10;;;;;;;7.30;100.00;99086.25;4139121;28;20292;-51
2023/12/27 03:38:12;;;;;;;1.45;1.05;;;;;;;7.29;100.00;99096.31;4141597;28;20244;-53
2023/12/27 03:40:13;;;;;;;2.95;1.38;;;;;;;7.41;100.00;99085.59;4138536;28;20304;-51
2023/12/27 03:42:19;;;;;;;1.45;1.40;;;;;;;7.28;100.00;99089.19;4139734;28;20214;-50
2023/12/27 03:44:20;;;;;;;1.02;1.02;;;;;;;7.46;100.00;99086.63;4137392;28;20734;-51
2023/12/27 03:46:22;;;;;;;1.00;1.00;;;;;;;7.35;100.00;99086.47;4136610;28;20654;-52
2023/12/27 03:48:24;;;;;;;0.90;0.90;;;;;;;7.33;100.00;99078.50;4136906;28;20233;-51
2023/12/27 03:50:26;;;;;;;0.88;0.88;;;;;;;7.36;100.00;99080.78;4140509;28;20213;-52
2023/12/27 03:52:27;;;;;;;2.97;1.10;;;;;;;7.34;100.00;99076.59;4138816;28;20264;-53
2023/12/27 03:54:29;;;;;;;1.42;1.33;;;;;;;7.34;100.00;99084.75;4136298;28;20239;-52
2023/12/27 03:56:31;;;;;;;1.15;1.13;;;;;;;7.31;100.00;99083.34;4135454;28;20642;-52
2023/12/27 03:58:33;;;;;;;0.98;0.98;;;;;;;7.30;100.00;99091.72;4135600;28;20304;-52
2023/12/27 04:00:35;;;;;;;1.80;0.90;;;;;;;7.35;100.00;99086.47;4135864;28;20210;-51
2023/12/27 04:02:37;;;;;;;1.10;1.00;;;;;;;7.41;100.00;99082.88;4135903;28;20221;-55
2023/12/27 04:04:39;;;;;;;1.40;1.30;;;;;;;7.39;100.00;99079.50;4136045;28;20221;-52
2023/12/27 04:06:41;;;;;;;2.00;1.75;;;;;;;7.40;100.00;99075.72;4137359;28;20213;-53
2023/12/27 04:08:43;;;;;;;1.67;1.58;;;;;;;7.42;100.00;99079.09;4135526;28;20217;-52
2023/12/27 04:10:45;;;;;;;1.60;1.50;;;;;;;7.38;100.00;99081.41;4135229;28;20668;-51
2023/12/27 04:12:46;;;;;;;2.30;2.05;;;;;;;7.41;100.00;99089.13;4135666;28;20210;-51
2023/12/27 04:14:48;;;;;;;1.70;1.60;;;;;;;7.38;100.00;99077.84;4128519;28;20773;-50
2023/12/27 04:16:50;;;;;;;1.55;1.45;;;;;;;7.36;100.00;99091.66;4142869;28;20849;-52
2023/12/27 04:18:52;;;;;;;2.40;2.25;;;;;;;7.38;100.00;99083.28;4137874;28;20704;-52
2023/12/27 04:20:54;;;;;;;9.57;1.63;;;;;;;7.40;100.00;99097.50;4137573;28;20272;-53
2023/12/27 04:22:55;;;;;;;2.60;1.70;;;;;;;7.45;100.00;99094.97;4136388;28;20622;-53
2023/12/27 04:24:57;;;;;;;2.75;1.42;;;;;;;7.43;100.00;99091.66;4134844;28;20221;-54
2023/12/27 04:26:59;;;;;;;2.30;2.20;;;;;;;7.44;100.00;99090.59;4142998;28;20684;-52
2023/12/27 04:29:06;;;;;;;1.83;1.17;;;;;;;7.42;100.00;99079.09;4151849;28;20231;-51
2023/12/27 04:31:07;;;;;;;1.80;1.63;;;;;;;7.41;100.00;99088.31;4144261;28;20247;-51
2023/12/27 04:33:09;;;;;;;1.25;1.20;;;;;;;7.40;100.00;99086.63;4137553;28;20201;-52
2023/12/27 04:35:11;;;;;;;0.93;0.93;;;;;;;7.43;100.00;99086.22;4136803;28;20213;-56
2023/12/27 04:37:13;;;;;;;1.90;1.73;;;;;;;7.36;100.00;99091.66;4134477;28;20552;-51
2023/12/27 04:39:15;;;;;;;3.05;1.75;;;;;;;7.42;100.00;99100.88;4128230;28;20234;-50
2023/12/27 04:41:17;;;;;;;1.70;1.65;;;;;;;7.40;100.00;99081.19;4138866;28;20677;-51
2023/12/27 04:43:19;;;;;;;1.83;1.65;;;;;;;7.38;100.00;99077.84;4137057;28;21063;-51
2023/12/27 04:45:21;;;;;;;1.30;1.23;;;;;;;7.45;100.00;99065.88;4137521;28;20205;-52
2023/12/27 04:47:29;;;;;;;1.77;1.63;;;;;;;7.41;100.00;99063.81;4216488;27;20637;-51
2023/12/27 04:49:31;;;;;;;2.40;2.25;;;;;;;7.36;100.00;99069.88;4210131;28;20226;-52
2023/12/27 04:51:33;;;;;;;1.30;1.30;;;;;;;7.41;100.00;99055.66;4182141;28;20601;-51
2023/12/27 04:53:36;;;;;;;1.40;1.35;;;;;;;7.39;100.00;99057.72;4182063;28;20957;-51
2023/12/27 04:55:38;;;;;;;5.20;3.20;;;;;;;7.43;100.00;99048.09;4184532;28;20211;-53
2023/12/27 04:57:39;;;;;;;2.60;1.85;;;;;;;7.40;100.00;99053.94;4177935;28;20208;-50
2023/12/27 04:59:41;;;;;;;1.83;1.35;;;;;;;7.43;100.00;99048.91;4181897;28;20235;-50
2023/12/27 05:01:43;;;;;;;1.50;1.40;;;;;;;7.36;100.00;99058.19;4182518;28;20215;-52
2023/12/27 05:03:44;;;;;;;1.00;1.00;;;;;;;7.41;100.00;99053.75;4181249;28;20644;-55
2023/12/27 05:05:47;;;;;;;5.10;2.08;;;;;;;7.38;100.00;99050.63;4189229;28;20207;-51
2023/12/27 05:07:48;;;;;;;1.67;1.58;;;;;;;7.36;100.00;99052.72;4183538;28;20741;-52
2023/12/27 05:09:50;;;;;;;13.48;2.47;;;;;;;7.37;100.00;99055.22;4180242;28;20254;-52
2023/12/27 05:11:52;;;;;;;1.13;1.13;;;;;;;7.39;100.00;99052.28;4186693;28;20283;-52
2023/12/27 05:13:54;;;;;;;2.13;1.15;;;;;;;7.45;100.00;99051.44;4182940;28;20262;-51
2023/12/27 05:15:55;;;;;;;9.00;3.00;;;;;;;7.38;100.00;99042.44;4184225;28;20208;-51
2023/12/27 05:17:57;;;;;;;1.65;1.17;;;;;;;7.49;100.00;99048.03;4181113;28;20212;-54
2023/12/27 05:19:59;;;;;;;9.70;1.70;;;;;;;7.39;100.00;99039.53;4178981;28;20203;-51
2023/12/27 05:22:01;;;;;;;1.45;1.45;;;;;;;7.43;100.00;99038.03;4181817;28;20215;-53
2023/12/27 05:24:03;;;;;;;1.30;1.17;;;;;;;7.44;100.00;99034.28;4170065;28;20271;-51
2023/12/27 05:26:05;;;;;;;0.82;0.82;;;;;;;7.48;100.00;99034.66;4182013;28;20239;-50
2023/12/27 05:28:07;;;;;;;1.42;1.33;;;;;;;7.45;100.00;99040.53;4183220;28;20231;-53
2023/12/27 05:30:09;;;;;;;2.33;2.10;;;;;;;7.43;100.00;99039.94;4190063;28;20207;-51
2023/12/27 05:32:12;;;;;;;1.73;1.63;;;;;;;7.42;100.00;99035.53;4189639;28;20250;-55
2023/12/27 05:34:14;;;;;;;1.25;1.17;;;;;;;7.46;100.00;99036.75;4179458;28;20644;-52
2023/12/27 05:36:16;;;;;;;1.70;1.60;;;;;;;7.48;100.00;99040.13;4189526;28;20212;-53
2023/12/27 05:38:17;;;;;;;3.33;1.20;;;;;;;7.37;100.00;99043.50;4181214;28;20744;-50
2023/12/27 05:40:19;;;;;;;1.23;1.20;;;;;;;7.38;100.00;99050.63;4178722;28;20274;-51
2023/12/27 05:42:21;;;;;;;1.42;1.33;;;;;;;7.38;100.00;99048.75;4166437;28;20223;-51
2023/12/27 05:44:23;;;;;;;1.00;0.82;;;;;;;7.39;100.00;99052.28;4166089;28;20663;-51
2023/12/27 05:46:24;;;;;;;0.93;0.90;;;;;;;7.36;100.00;99056.28;4178923;28;20263;-51
2023/12/27 05:48:26;;;;;;;1.00;1.00;;;;;;;7.38;100.00;99056.91;4185373;28;20235;-50
2023/12/27 05:50:28;;;;;;;5.18;2.80;;;;;;;7.38;100.00;99053.34;4182442;28;20210;-51
2023/12/27 05:52:30;;;;;;;2.50;1.10;;;;;;;7.41;100.00;99055.66;4186209;28;20207;-50
2023/12/27 05:54:31;;;;;;;0.85;0.85;;;;;;;7.38;100.00;99056.06;4182355;28;20284;-51
2023/12/27 05:56:33;;;;;;;1.45;1.45;;;;;;;7.32;100.00;99057.78;4179072;28;20244;-52
2023/12/27 05:58:36;;;;;;;1.10;1.05;;;;;;;7.36;100.00;99052.72;4175965;28;20768;-55
2023/12/27 06:00:38;;;;;;;1.00;1.00;;;;;;;7.31;100.00;99055.25;4171169;28;20260;-53
2023/12/27 06:02:40;;;;;;;2.92;1.20;;;;;;;7.37;100.00;99055.22;4172189;28;20208;-52
2023/12/27 06:04:42;;;;;;;3.55;0.77;;;;;;;7.42;100.00;99063.56;4171388;28;20591;-54
2023/12/27 06:06:44;;;;;;;1.02;1.02;;;;;;;7.34;100.00;99055.66;4170919;28;20293;-52
2023/12/27 06:08:45;;;;;;;1.15;1.00;;;;;;;7.37;100.00;99057.13;4165759;28;20232;-54
2023/12/27 06:10:47;;;;;;;0.80;0.80;;;;;;;7.34;100.00;99060.25;4172657;28;20270;-51
2023/12/27 06:12:49;;;;;;;1.60;1.50;;;;;;;7.39;100.00;99065.91;4171219;28;20211;-52
2023/12/27 06:14:50;;;;;;;4.03;0.98;;;;;;;7.36;100.00;99067.16;4174779;28;20218;-51
2023/12/27 06:16:52;;;;;;;0.90;0.90;;;;;;;7.39;100.00;99065.91;4170477;28;20220;-51
2023/12/27 06:18:54;;;;;;;0.90;0.90;;;;;;;7.32;100.00;99056.94;4168438;28;20232;-51
2023/12/27 06:20:56;;;;;;;0.70;0.70;;;;;;;7.37;100.00;99059.84;4168820;28;20250;-52
2023/12/27 06:22:58;;;;;;;1.00;0.90;;;;;;;7.31;100.00;99061.56;4178441;28;20308;-51
2023/12/27 06:24:59;;;;;;;0.98;0.98;;;;;;;7.33;100.00;99059.44;4167156;28;20208;-52
2023/12/27 06:27:01;;;;;;;1.33;1.33;;;;;;;7.31;100.00;99055.25;4170110;28;20254;-52
2023/12/27 06:29:03;;;;;;;5.47;0.85;;;;;;;7.35;100.00;99061.97;4166341;28;20219;-51
2023/12/27 06:31:05;;;;;;;1.70;1.05;;;;;;;7.36;100.00;99064.44;4173329;28;20205;-51
2023/12/27 06:33:07;;;;;;;1.30;1.30;;;;;;;7.33;100.00;99064.88;4177305;28;20208;-51
2023/12/27 06:35:09;;;;;;;2.42;2.28;;;;;;;7.29;100.00;99065.53;4169790;28;20208;-52
2023/12/27 06:37:11;;;;;;;1.20;1.20;;;;;;;7.28;100.00;99072.03;4166393;28;20255;-53
2023/12/27 06:39:13;;;;;;;12.55;1.70;;;;;;;7.26;100.00;99060.50;4170523;28;20243;-53
2023/12/27 06:41:16;;;;;;;0.98;0.98;;;;;;;7.25;100.00;99062.41;4169029;28;20212;-50
2023/12/27 06:43:19;;;;;;;1.25;0.93;;;;;;;7.24;100.00;99049.88;4169058;28;20260;-55
2023/12/27 06:45:21;;;;;;;1.42;1.33;;;;;;;7.23;100.00;99058.25;4169538;28;20369;-52
2023/12/27 06:47:22;;;;;;;1.05;1.00;;;;;;;7.22;100.00;99051.13;4180094;28;20258;-51
2023/12/27 06:49:24;;;;;;;1.45;1.35;;;;;;;7.26;100.00;99046.91;4176780;28;20712;-52
2023/12/27 06:51:26;;;;;;;3.20;1.55;;;;;;;7.29;100.00;99041.88;4161926;28;20211;-51
2023/12/27 06:53:28;;;;;;;1.20;1.20;;;;;;;7.35;100.00;99041.00;4172400;28;20302;-52
2023/12/27 06:55:30;;;;;;;1.15;1.05;;;;;;;7.28;100.00;99042.09;4171704;28;20727;-52
2023/12/27 06:57:31;;;;;;;1.10;1.10;;;;;;;7.28;100.00;99050.28;4178217;28;20668;-51
2023/12/27 06:59:33;;;;;;;1.17;0.85;;;;;;;7.27;100.00;99065.75;4176845;28;20239;-51
2023/12/27 07:01:35;;;;;;;1.67;1.58;;;;;;;7.24;100.00;99068.06;4171717;28;20241;-51
2023/12/27 07:03:36;;;;;;;2.55;2.35;;;;;;;7.34;100.00;99068.44;4177141;28;20341;-51
2023/12/27 07:05:38;;;;;;;0.95;0.90;;;;;;;7.29;100.00;99069.09;4169443;28;20212;-52
2023/12/27 07:07:40;;;;;;;1.38;1.27;;;;;;;7.41;100.00;99061.09;4169783;28;20208;-51
2023/12/27 07:09:42;;;;;;;2.72;1.27;;;;;;;7.30;100.00;99053.59;4176092;28;20231;-51
2023/12/27 07:11:44;;;;;;;0.80;0.80;;;;;;;7.30;100.00;99050.88;4165781;28;20270;-52
2023/12/27 07:13:46;;;;;;;3.83;1.70;;;;;;;7.30;100.00;99061.75;4168278;28;20662;-51
2023/12/27 07:15:48;;;;;;;1.20;1.10;;;;;;;7.36;100.00;99059.00;4165507;28;20216;-51
2023/12/27 07:17:50;;;;;;;0.82;0.82;;;;;;;7.27;100.00;99063.03;4169706;28;20234;-52
2023/12/27 07:19:52;;;;;;;1.55;1.42;;;;;;;7.33;100.00;99064.03;4160747;28;20205;-53
2023/12/27 07:21:54;;;;;;;1.42;1.33;;;;;;;7.35;100.00;99070.13;4166372;28;20216;-51
2023/12/27 07:23:56;;;;;;;1.13;1.13;;;;;;;7.25;100.00;99077.91;4170667;28;20215;-51
2023/12/27 07:26:01;;;;;;;1.25;1.20;;;;;;;7.25;100.00;99067.00;4170725;28;20422;-51
2023/12/27 07:28:03;;;;;;;1.23;1.13;;;;;;;7.31;100.00;99063.44;4168275;28;20650;-52
2023/12/27 07:30:06;;;;;;;1.52;1.42;;;;;;;7.23;100.00;99063.69;4170389;28;20208;-50
2023/12/27 07:32:08;;;;;;;1.60;1.50;;;;;;;7.30;100.00;99053.59;4168946;28;20223;-51
2023/12/27 07:34:10;;;;;;;1.35;1.20;;;;;;;7.25;100.00;99042.50;4168897;28;20205;-50
2023/12/27 07:36:12;;;;;;;1.65;1.55;;;;;;;7.22;100.00;99035.63;4167439;28;20612;-51
2023/12/27 07:38:13;;;;;;;1.70;1.60;;;;;;;7.33;100.00;99036.81;4168693;28;20224;-52
2023/12/27 07:40:15;;;;;;;4.43;1.98;;;;;;;7.19;100.00;99035.22;4170822;28;20829;-55
2023/12/27 07:42:17;;;;;;;1.45;0.95;;;;;;;7.18;100.00;99033.53;4175205;28;20298;-52
2023/12/27 07:44:20;;;;;;;1.23;1.17;;;;;;;7.21;100.00;99033.13;4170386;28;20286;-52
2023/12/27 07:46:22;;;;;;;2.15;2.05;;;;;;;7.20;100.00;99023.28;4169391;28;20215;-51
2023/12/27 07:48:23;;;;;;;2.10;2.00;;;;;;;7.17;100.00;99032.69;4167950;28;20232;-51
2023/12/27 07:50:25;;;;;;;1.42;1.25;;;;;;;7.19;100.00;99029.78;4167859;28;20205;-52
2023/12/27 07:52:27;;;;;;;1.00;1.00;;;;;;;7.31;100.00;99044.38;4166916;28;20203;-52
2023/12/27 07:54:31;;;;;;;1.75;1.30;;;;;;;7.27;100.00;99043.97;4165668;28;20258;-50
2023/12/27 07:56:36;;;;;;;1.48;1.38;;;;;;;7.32;100.00;99040.59;4167255;28;20208;-52
2023/12/27 07:58:38;;;;;;;1.23;1.17;;;;;;;7.31;100.00;99028.03;4167561;28;20278;-53
2023/12/27 08:00:40;;;;;;;1.17;1.10;;;;;;;7.25;100.00;99012.56;4166357;28;20215;-50
2023/12/27 08:02:42;;;;;;;1.10;1.00;;;;;;;7.27;100.00;98996.84;4165157;28;20246;-51
2023/12/27 08:04:43;;;;;;;1.70;1.58;;;;;;;7.26;100.00;98978.84;4168969;28;20212;-51
2023/12/27 08:06:47;;;;;;;1.58;1.38;;;;;;;7.37;100.00;98961.84;4173135;28;20207;-51
2023/12/27 08:08:48;;;;;;;2.25;1.38;;;;;;;7.26;100.00;98965.25;4169458;28;20576;-51
2023/12/27 08:10:50;;;;;;;1.52;1.13;;;;;;;7.36;100.00;98960.19;4165828;28;20227;-52
2023/12/27 08:12:52;;;;;;;2.60;1.48;;;;;;;7.32;100.00;98980.72;4167993;28;20216;-51
2023/12/27 08:14:53;;;;;;;1.92;1.70;;;;;;;7.35;100.00;99000.16;4166019;28;20209;-50
2023/12/27 08:16:55;;;;;;;2.38;1.67;;;;;;;7.45;100.00;99007.88;4170049;28;20208;-54
2023/12/27 08:18:57;;;;;;;4.45;1.75;;;;;;;7.45;100.00;99005.13;4170784;28;20663;-51
2023/12/27 08:20:59;;;;;;;1.60;1.50;;;;;;;7.49;100.00;99003.66;4174566;28;20215;-50
2023/12/27 08:23:01;;;;;;;1.30;1.20;;;;;;;7.54;100.00;99001.09;4167104;28;20213;-55
2023/12/27 08:25:05;;;;;;;1.63;1.52;;;;;;;7.57;100.00;98981.63;4171577;28;20212;-51
2023/12/27 08:27:07;;;;;;;2.00;1.90;;;;;;;7.63;100.00;98978.00;4170971;28;20235;-50
2023/12/27 08:29:09;;;;;;;1.90;1.80;;;;;;;7.68;100.00;98972.75;4165650;28;20274;-51
2023/12/27 08:31:12;;;;;;;1.90;1.80;;;;;;;7.76;100.00;98977.91;4167289;28;20736;-52
2023/12/27 08:33:15;;;;;;;1.17;1.08;;;;;;;7.76;100.00;98988.81;4168246;28;20266;-52
2023/12/27 08:35:16;;;;;;;2.97;1.73;;;;;;;7.73;100.00;98979.19;4170072;28;20237;-52
2023/12/27 08:37:20;;;;;;;3.40;1.20;;;;;;;7.84;100.00;98975.75;4149710;28;20217;-55
2023/12/27 08:39:22;;;;;;;0.98;0.98;;;;;;;7.68;100.00;98980.91;4167398;28;20590;-53
2023/12/27 08:41:25;;;;;;;1.55;1.40;;;;;;;7.78;100.00;98993.00;4177530;28;20623;-53
2023/12/27 08:43:29;;;;;;;3.13;1.63;;;;;;;7.81;100.00;98999.91;4168158;28;20209;-54
2023/12/27 08:45:31;;;;;;;1.98;1.75;;;;;;;7.87;100.00;99001.69;4167139;28;20212;-52
2023/12/27 08:47:33;;;;;;;2.08;1.98;;;;;;;7.92;100.00;98999.16;4175546;28;20724;-52
2023/12/27 08:49:34;;;;;;;2.08;1.98;;;;;;;7.75;100.00;98992.59;4177078;28;20227;-49
2023/12/27 08:51:37;;;;;;;1.38;1.38;;;;;;;7.66;100.00;98988.44;4173800;28;20283;-51
2023/12/27 08:53:39;;;;;;;0.88;0.85;;;;;;;7.73;100.00;98989.25;4167947;28;20208;-52
2023/12/27 08:55:41;;;;;;;1.95;1.17;;;;;;;7.80;100.00;98995.47;4164191;28;20208;-51
2023/12/27 08:57:42;;;;;;;1.83;1.45;;;;;;;7.80;100.00;99000.91;4185070;28;20686;-51
2023/12/27 08:59:45;;;;;;;4.43;1.10;;;;;;;7.76;100.00;99000.53;4181469;28;20259;-50
2023/12/27 09:01:47;;;;;;;7.70;1.83;;;;;;;7.83;100.00;99006.75;4167424;28;20542;-50
2023/12/27 09:03:50;;;;;;;1.38;1.27;;;;;;;7.73;100.00;98994.69;4168029;28;20243;-50
2023/12/27 09:05:52;;;;;;;0.80;0.80;;;;;;;7.80;100.00;98990.03;4169995;28;20688;-52
2023/12/27 09:07:53;;;;;;;3.63;1.38;;;;;;;7.81;100.00;98989.00;4169638;28;20311;-51
2023/12/27 09:09:55;;;;;;;4.55;1.10;;;;;;;7.71;100.00;98969.56;4172359;28;20208;-51
2023/12/27 09:12:01;;;;;;;2.35;1.50;;;;;;;7.72;100.00;98971.22;4165393;28;20204;-52
2023/12/27 09:14:05;;;;;;;1.05;1.05;;;;;;;7.73;100.00;98975.63;4170612;28;21025;-51
2023/12/27 09:16:07;;;;;;;2.65;1.90;;;;;;;7.73;100.00;98972.91;4165620;28;20223;-52
2023/12/27 09:18:09;;;;;;;1.85;1.75;;;;;;;7.81;100.00;98959.84;4175127;28;20247;-52
2023/12/27 09:20:11;;;;;;;0.80;0.80;;;;;;;7.81;100.00;98965.28;4168307;28;20298;-54
2023/12/27 09:22:13;;;;;;;1.40;1.33;;;;;;;7.83;100.00;98967.81;4166670;28;20553;-52
2023/12/27 09:24:15;;;;;;;1.98;1.88;;;;;;;7.90;100.00;98971.31;4177227;28;20243;-51
2023/12/27 09:26:17;;;;;;;5.38;1.10;;;;;;;7.86;100.00;98972.81;4151394;28;20247;-52
2023/12/27 09:28:19;;;;;;;1.10;1.10;;;;;;;7.87;100.00;98963.56;4167935;28;20232;-50
2023/12/27 09:30:23;;;;;;;1.05;0.80;;;;;;;7.89;100.00;98961.47;4164291;28;20212;-53
2023/12/27 09:32:25;;;;;;;1.27;1.27;;;;;;;7.92;100.00;98966.47;4169125;28;20624;-51
2023/12/27 09:34:27;;;;;;;1.67;0.82;;;;;;;7.96;100.00;98973.16;4170565;28;20247;-52